Time;durP1;ratioP1;P1;durP2;ratioP2;P2;SDS_P1;SDS_P2;PMS_P1;PMS_P2;Temp;Humidity;BMP_temperature;BMP_pressure;BME280_temperature;BME280_humidity;BME280_pressure;Samples;Min_cycle;Max_cycle;Signal;HPM_P1;HPM_P2
2022/04/21 00:00:34;;;;;;;2.00;1.40;;;;;;;;;;5046973;28;20430;-72
2022/04/21 00:03:00;;;;;;;3.17;1.97;;;;;;;;;;5047324;28;20431;-72
2022/04/21 00:05:26;;;;;;;1.70;1.70;;;;;;;;;;5048104;28;20533;-73
2022/04/21 00:07:53;;;;;;;2.53;1.60;;;;;;;;;;5045460;28;20422;-72
2022/04/21 00:10:19;;;;;;;1.50;1.50;;;;;;;;;;5044932;28;20457;-72
2022/04/21 00:12:45;;;;;;;1.90;1.90;;;;;;;;;;5050203;28;20426;-72
2022/04/21 00:15:11;;;;;;;1.90;1.90;;;;;;;;;;5047240;28;20538;-72
2022/04/21 00:17:38;;;;;;;1.93;1.93;;;;;;;;;;5045846;28;20424;-72
2022/04/21 00:20:04;;;;;;;1.93;1.93;;;;;;;;;;5044077;28;20437;-72
2022/04/21 00:25:15;;;;;;;1.70;1.70;;;;;;;;;;5048468;28;20499;-72
2022/04/21 00:27:42;;;;;;;2.13;2.03;;;;;;;;;;5045269;28;20469;-72
2022/04/21 00:30:09;;;;;;;2.30;2.20;;;;;;;;;;5043776;28;20434;-72
2022/04/21 00:32:35;;;;;;;1.80;1.80;;;;;;;;;;5044141;28;20438;-72
2022/04/21 00:35:01;;;;;;;2.10;2.10;;;;;;;;;;5030835;28;20573;-73
2022/04/21 00:37:28;;;;;;;2.70;2.17;;;;;;;;;;5046805;28;20461;-72
2022/04/21 00:39:54;;;;;;;2.83;2.23;;;;;;;;;;5046474;28;20443;-72
2022/04/21 00:42:20;;;;;;;2.10;2.00;;;;;;;;;;5047707;28;20438;-72
2022/04/21 00:44:46;;;;;;;2.87;2.77;;;;;;;;;;5047857;28;20438;-72
2022/04/21 00:47:13;;;;;;;3.33;2.70;;;;;;;;;;5041808;28;20422;-72
2022/04/21 00:49:39;;;;;;;2.10;2.00;;;;;;;;;;5047107;28;20545;-72
2022/04/21 00:52:05;;;;;;;5.30;1.70;;;;;;;;;;5045043;28;20482;-72
2022/04/21 00:54:32;;;;;;;2.27;2.07;;;;;;;;;;5048630;28;20469;-72
2022/04/21 00:57:00;;;;;;;5.60;2.47;;;;;;;;;;5044711;28;20537;-72
2022/04/21 00:59:26;;;;;;;3.03;1.93;;;;;;;;;;5047874;28;20815;-72
2022/04/21 01:04:38;;;;;;;5.17;1.87;;;;;;;;;;5041522;28;20454;-71
2022/04/21 01:07:08;;;;;;;2.13;2.07;;;;;;;;;;5042558;28;20469;-72
2022/04/21 01:09:34;;;;;;;2.70;2.60;;;;;;;;;;5039623;28;20439;-72
2022/04/21 01:12:00;;;;;;;2.80;2.70;;;;;;;;;;5045612;28;20815;-72
2022/04/21 01:14:27;;;;;;;2.40;2.33;;;;;;;;;;5047839;28;20502;-73
2022/04/21 01:16:52;;;;;;;2.03;1.93;;;;;;;;;;5046864;28;20442;-72
2022/04/21 01:19:19;;;;;;;2.33;2.23;;;;;;;;;;5044940;28;20538;-72
2022/04/21 01:21:45;;;;;;;2.23;2.13;;;;;;;;;;5043456;28;21019;-72
2022/04/21 01:24:11;;;;;;;1.93;1.93;;;;;;;;;;5043092;28;20435;-72
2022/04/21 01:26:37;;;;;;;1.60;1.60;;;;;;;;;;5047977;28;20438;-72
2022/04/21 01:29:05;;;;;;;2.30;2.20;;;;;;;;;;5046293;28;20433;-73
2022/04/21 01:31:31;;;;;;;2.30;2.20;;;;;;;;;;5045615;28;20434;-72
2022/04/21 01:33:58;;;;;;;4.63;2.90;;;;;;;;;;5046426;28;20430;-72
2022/04/21 01:36:24;;;;;;;2.17;2.03;;;;;;;;;;5043866;28;20514;-72
2022/04/21 01:41:34;;;;;;;2.10;2.00;;;;;;;;;;5048358;28;20961;-72
2022/04/21 01:44:00;;;;;;;2.47;2.37;;;;;;;;;;5048847;28;20426;-72
2022/04/21 01:46:26;;;;;;;2.27;2.23;;;;;;;;;;5045985;28;20442;-72
2022/04/21 01:48:52;;;;;;;1.80;1.80;;;;;;;;;;5048501;28;20470;-72
2022/04/21 01:51:18;;;;;;;2.37;2.37;;;;;;;;;;5047630;28;20922;-72
2022/04/21 01:53:44;;;;;;;2.83;2.50;;;;;;;;;;5047085;28;20537;-72
2022/04/21 01:56:10;;;;;;;2.20;2.20;;;;;;;;;;5042845;28;20561;-72
2022/04/21 01:58:36;;;;;;;2.40;2.30;;;;;;;;;;5045390;28;20442;-72
2022/04/21 02:01:02;;;;;;;2.20;2.10;;;;;;;;;;5043600;28;20512;-72
2022/04/21 02:03:30;;;;;;;2.20;1.70;;;;;;;;;;5044524;28;20941;-72
2022/04/21 02:05:56;;;;;;;1.90;1.90;;;;;;;;;;5045921;28;20443;-73
2022/04/21 02:08:22;;;;;;;2.10;2.10;;;;;;;;;;5043027;28;20914;-72
2022/04/21 02:10:49;;;;;;;2.60;2.50;;;;;;;;;;5043089;28;20926;-72
2022/04/21 02:13:14;;;;;;;2.10;2.00;;;;;;;;;;5046826;28;20438;-72
2022/04/21 02:15:41;;;;;;;2.43;2.33;;;;;;;;;;5048048;28;20969;-73
2022/04/21 02:18:07;;;;;;;2.40;2.40;;;;;;;;;;5045476;28;20423;-72
2022/04/21 02:20:33;;;;;;;2.03;2.03;;;;;;;;;;5047589;28;20434;-72
2022/04/21 02:22:59;;;;;;;1.80;1.80;;;;;;;;;;5050988;28;20437;-73
2022/04/21 02:25:25;;;;;;;2.07;1.93;;;;;;;;;;5050244;28;20442;-72
2022/04/21 02:27:51;;;;;;;2.23;2.17;;;;;;;;;;5049015;28;20926;-72
2022/04/21 02:30:18;;;;;;;1.90;1.80;;;;;;;;;;5050131;28;20815;-72
2022/04/21 02:32:44;;;;;;;2.10;2.00;;;;;;;;;;5047124;28;20442;-72
2022/04/21 02:35:12;;;;;;;2.10;2.10;;;;;;;;;;5049229;28;20981;-72
2022/04/21 02:37:39;;;;;;;2.10;2.10;;;;;;;;;;5042345;28;20427;-72
2022/04/21 02:40:06;;;;;;;2.13;2.13;;;;;;;;;;5046559;28;20443;-72
2022/04/21 02:42:32;;;;;;;3.27;2.50;;;;;;;;;;5050187;28;20430;-72
2022/04/21 02:44:58;;;;;;;2.07;2.07;;;;;;;;;;5051212;28;20438;-72
2022/04/21 02:47:24;;;;;;;2.70;2.60;;;;;;;;;;5043415;28;20441;-72
2022/04/21 02:49:50;;;;;;;2.23;2.13;;;;;;;;;;5045789;28;21070;-72
2022/04/21 02:52:17;;;;;;;3.20;3.00;;;;;;;;;;5046971;28;20480;-72
2022/04/21 02:57:48;;;;;;;2.63;2.63;;;;;;;;;;5024137;28;20445;-72
2022/04/21 03:00:14;;;;;;;2.50;2.50;;;;;;;;;;5024637;28;20463;-72
2022/04/21 03:02:40;;;;;;;2.33;2.33;;;;;;;;;;5036161;28;20445;-72
2022/04/21 03:05:06;;;;;;;2.47;2.20;;;;;;;;;;5046335;28;20439;-73
2022/04/21 03:07:32;;;;;;;5.63;2.87;;;;;;;;;;5049183;28;20934;-72
2022/04/21 03:09:58;;;;;;;4.50;2.43;;;;;;;;;;5045768;28;20430;-72
2022/04/21 03:12:26;;;;;;;7.63;2.20;;;;;;;;;;5048557;28;20538;-72
2022/04/21 03:14:52;;;;;;;2.90;2.80;;;;;;;;;;5050422;28;20465;-72
2022/04/21 03:17:18;;;;;;;2.50;2.40;;;;;;;;;;5046370;28;20464;-72
2022/04/21 03:19:44;;;;;;;2.70;2.60;;;;;;;;;;5049442;28;20434;-72
2022/04/21 03:24:58;;;;;;;3.53;2.30;;;;;;;;;;5049079;28;20448;-72
2022/04/21 03:27:26;;;;;;;2.60;2.50;;;;;;;;;;5048644;28;20529;-72
2022/04/21 03:29:52;;;;;;;6.03;2.80;;;;;;;;;;5047147;28;20799;-72
2022/04/21 03:32:18;;;;;;;3.10;3.03;;;;;;;;;;5046319;28;20926;-73
2022/04/21 03:34:45;;;;;;;2.83;2.83;;;;;;;;;;5048196;28;20469;-72
2022/04/21 03:37:13;;;;;;;2.50;2.40;;;;;;;;;;5046855;28;20935;-72
2022/04/21 03:39:39;;;;;;;3.20;3.10;;;;;;;;;;5049283;28;20482;-72
2022/04/21 03:42:06;;;;;;;2.97;2.77;;;;;;;;;;5044830;28;20430;-72
2022/04/21 03:44:32;;;;;;;2.77;2.57;;;;;;;;;;5045267;28;20442;-72
2022/04/21 03:46:58;;;;;;;2.47;2.43;;;;;;;;;;5045823;28;20437;-72
2022/04/21 03:49:30;;;;;;;2.63;2.33;;;;;;;;;;5047277;28;21052;-72
2022/04/21 03:51:57;;;;;;;3.80;2.30;;;;;;;;;;5048092;28;20435;-72
2022/04/21 03:54:24;;;;;;;3.20;3.00;;;;;;;;;;5043057;28;20446;-73
2022/04/21 03:56:50;;;;;;;2.67;2.57;;;;;;;;;;5046184;28;20799;-72
2022/04/21 03:59:17;;;;;;;2.67;2.43;;;;;;;;;;5046846;28;20791;-73
2022/04/21 04:01:43;;;;;;;2.50;2.50;;;;;;;;;;5046995;28;20438;-72
2022/04/21 04:04:10;;;;;;;3.83;3.57;;;;;;;;;;5044860;28;20453;-72
2022/04/21 04:12:06;;;;;;;3.57;2.50;;;;;;;;;;5045881;28;20430;-72
2022/04/21 04:14:32;;;;;;;3.33;2.37;;;;;;;;;;5047342;28;20477;-72
2022/04/21 04:16:58;;;;;;;2.20;2.10;;;;;;;;;;5046058;28;20923;-72
2022/04/21 04:19:24;;;;;;;2.87;2.70;;;;;;;;;;5045623;28;20419;-72
2022/04/21 04:21:51;;;;;;;2.40;2.30;;;;;;;;;;5045362;28;20442;-72
2022/04/21 04:24:17;;;;;;;2.60;2.50;;;;;;;;;;5047592;28;20485;-72
2022/04/21 04:26:43;;;;;;;2.07;2.07;;;;;;;;;;5043927;28;20498;-72
2022/04/21 04:29:09;;;;;;;3.53;2.70;;;;;;;;;;5045204;28;20422;-72
2022/04/21 04:31:36;;;;;;;109.20;7.67;;;;;;;;;;5047346;28;20444;-72
2022/04/21 04:34:02;;;;;;;2.03;2.03;;;;;;;;;;5047225;28;20426;-72
2022/04/21 04:36:28;;;;;;;4.60;2.67;;;;;;;;;;5041615;28;20478;-72
2022/04/21 04:38:54;;;;;;;4.53;3.80;;;;;;;;;;5045051;28;20948;-72
2022/04/21 04:44:05;;;;;;;2.80;2.70;;;;;;;;;;5042854;28;21692;-72
2022/04/21 04:46:42;;;;;;;4.07;3.63;;;;;;;;;;5044222;28;20438;-73
2022/04/21 04:49:09;;;;;;;3.03;2.90;;;;;;;;;;5046633;28;20478;-72
2022/04/21 04:51:37;;;;;;;3.20;3.00;;;;;;;;;;5046019;28;20860;-79
2022/04/21 04:54:05;;;;;;;2.53;2.43;;;;;;;;;;5045628;28;20422;-79
2022/04/21 04:56:31;;;;;;;3.80;3.60;;;;;;;;;;5044989;28;20481;-78
2022/04/21 04:58:57;;;;;;;3.20;3.00;;;;;;;;;;5045538;28;20513;-79
2022/04/21 05:01:40;;;;;;;4.87;3.20;;;;;;;;;;5044336;28;20445;-78
2022/04/21 05:04:16;;;;;;;3.40;3.30;;;;;;;;;;5047414;28;20437;-79
2022/04/21 05:06:43;;;;;;;3.07;2.97;;;;;;;;;;5044901;28;20807;-78
2022/04/21 05:09:10;;;;;;;3.20;3.10;;;;;;;;;;5043525;28;20838;-79
2022/04/21 05:11:37;;;;;;;4.37;3.97;;;;;;;;;;5043171;28;20933;-77
2022/04/21 05:14:03;;;;;;;4.30;2.83;;;;;;;;;;5044281;28;20431;-77
2022/04/21 05:16:29;;;;;;;4.30;4.00;;;;;;;;;;5046895;28;20579;-79
2022/04/21 05:18:56;;;;;;;3.33;3.23;;;;;;;;;;5047156;28;20418;-76
2022/04/21 05:21:22;;;;;;;9.20;4.50;;;;;;;;;;5042687;28;20935;-74
2022/04/21 05:23:49;;;;;;;3.30;3.10;;;;;;;;;;5046337;28;20449;-78
2022/04/21 05:26:16;;;;;;;4.03;3.63;;;;;;;;;;5046620;28;20530;-77
2022/04/21 05:28:42;;;;;;;3.80;3.43;;;;;;;;;;5045009;28;20430;-79
2022/04/21 05:31:08;;;;;;;5.63;3.30;;;;;;;;;;5043690;28;20457;-75
2022/04/21 05:33:35;;;;;;;3.20;3.10;;;;;;;;;;5047505;28;20439;-76
2022/04/21 05:36:01;;;;;;;5.00;4.60;;;;;;;;;;5041462;28;20487;-73
2022/04/21 05:38:28;;;;;;;4.23;3.30;;;;;;;;;;5044315;28;20783;-79
2022/04/21 05:40:54;;;;;;;3.70;3.33;;;;;;;;;;5044733;28;20553;-80
2022/04/21 05:43:21;;;;;;;5.60;2.70;;;;;;;;;;5045277;28;20435;-79
2022/04/21 05:45:48;;;;;;;4.90;3.57;;;;;;;;;;5041367;28;20535;-76
2022/04/21 05:48:15;;;;;;;2.73;2.63;;;;;;;;;;5040789;28;20438;-80
2022/04/21 05:50:45;;;;;;;4.00;3.80;;;;;;;;;;5036984;28;20533;-79
2022/04/21 05:53:14;;;;;;;5.10;3.57;;;;;;;;;;5045450;28;20438;-80
2022/04/21 05:55:41;;;;;;;3.17;3.17;;;;;;;;;;5047472;28;20509;-78
2022/04/21 05:58:07;;;;;;;4.10;3.93;;;;;;;;;;5043463;28;20441;-78
2022/04/21 06:00:33;;;;;;;4.00;3.70;;;;;;;;;;5049592;28;20443;-74
2022/04/21 06:02:59;;;;;;;3.47;3.17;;;;;;;;;;5050644;28;20442;-78
2022/04/21 06:05:24;;;;;;;4.60;2.97;;;;;;;;;;5049880;28;20455;-78
2022/04/21 06:07:50;;;;;;;3.50;3.30;;;;;;;;;;5050409;28;20429;-75
2022/04/21 06:10:16;;;;;;;4.40;3.40;;;;;;;;;;5049527;28;20498;-74
2022/04/21 06:12:43;;;;;;;3.93;3.83;;;;;;;;;;5049564;28;20430;-75
2022/04/21 06:15:09;;;;;;;3.50;3.47;;;;;;;;;;5047469;28;20474;-76
2022/04/21 06:17:35;;;;;;;11.07;3.30;;;;;;;;;;5050229;28;20445;-74
2022/04/21 06:20:01;;;;;;;3.73;3.53;;;;;;;;;;5047670;28;20426;-73
2022/04/21 06:22:27;;;;;;;3.23;3.07;;;;;;;;;;5039415;28;20441;-75
2022/04/21 06:24:53;;;;;;;4.33;4.03;;;;;;;;;;5049971;28;20529;-78
2022/04/21 06:27:19;;;;;;;6.53;4.60;;;;;;;;;;5046008;28;20426;-73
2022/04/21 06:29:46;;;;;;;6.43;3.80;;;;;;;;;;5048169;28;20439;-74
2022/04/21 06:32:12;;;;;;;5.60;4.10;;;;;;;;;;5048322;28;20422;-73
2022/04/21 06:34:38;;;;;;;7.30;3.47;;;;;;;;;;5051453;28;20512;-73
2022/04/21 06:37:04;;;;;;;3.97;3.87;;;;;;;;;;5041771;28;20434;-76
2022/04/21 06:39:30;;;;;;;4.23;3.93;;;;;;;;;;5048751;28;20504;-74
2022/04/21 06:41:56;;;;;;;3.27;3.03;;;;;;;;;;5043526;28;20469;-75
2022/04/21 06:49:51;;;;;;;3.60;3.40;;;;;;;;;;5035838;28;20560;-73
2022/04/21 06:52:17;;;;;;;7.73;4.10;;;;;;;;;;5046076;28;20477;-73
2022/04/21 06:54:43;;;;;;;3.60;3.40;;;;;;;;;;5038507;28;20565;-74
2022/04/21 06:57:09;;;;;;;3.70;3.60;;;;;;;;;;5039174;28;21120;-74
2022/04/21 06:59:35;;;;;;;3.20;3.10;;;;;;;;;;5050815;28;20422;-76
2022/04/21 07:02:01;;;;;;;3.77;3.50;;;;;;;;;;5037656;28;20465;-73
2022/04/21 07:04:28;;;;;;;3.97;3.67;;;;;;;;;;5045901;28;20450;-75
2022/04/21 07:06:54;;;;;;;3.77;3.57;;;;;;;;;;5041729;28;20449;-75
2022/04/21 07:09:20;;;;;;;3.90;3.60;;;;;;;;;;5046722;28;20438;-75
2022/04/21 07:11:47;;;;;;;4.30;4.20;;;;;;;;;;5038386;28;20470;-74
2022/04/21 07:14:13;;;;;;;6.50;3.57;;;;;;;;;;5048017;28;20438;-78
2022/04/21 07:16:39;;;;;;;3.67;3.57;;;;;;;;;;5043072;28;20493;-74
2022/04/21 07:19:05;;;;;;;21.23;4.03;;;;;;;;;;5037463;28;20449;-77
2022/04/21 07:21:31;;;;;;;3.03;2.93;;;;;;;;;;5044613;28;20444;-73
2022/04/21 07:23:57;;;;;;;3.53;3.43;;;;;;;;;;5035242;28;20438;-78
2022/04/21 07:26:23;;;;;;;4.30;3.90;;;;;;;;;;5046440;28;20476;-73
2022/04/21 07:28:49;;;;;;;3.77;3.47;;;;;;;;;;5043007;28;20494;-77
2022/04/21 07:31:15;;;;;;;7.10;4.20;;;;;;;;;;5042365;28;20446;-76
2022/04/21 07:33:41;;;;;;;3.60;3.50;;;;;;;;;;5046485;28;20433;-73
2022/04/21 07:36:08;;;;;;;4.37;3.97;;;;;;;;;;5048034;28;20986;-74
2022/04/21 07:38:34;;;;;;;4.37;4.07;;;;;;;;;;5048597;28;20799;-74
2022/04/21 07:41:01;;;;;;;11.60;3.80;;;;;;;;;;5048335;28;20929;-73
2022/04/21 07:43:27;;;;;;;4.97;4.50;;;;;;;;;;5044552;28;20872;-74
2022/04/21 07:45:53;;;;;;;3.80;3.70;;;;;;;;;;5034918;28;20978;-73
2022/04/21 07:48:19;;;;;;;4.10;3.90;;;;;;;;;;5042188;28;20801;-74
2022/04/21 07:50:46;;;;;;;3.73;3.50;;;;;;;;;;5038430;28;20537;-77
2022/04/21 07:53:14;;;;;;;4.37;3.97;;;;;;;;;;5047661;28;20825;-77
2022/04/21 07:55:41;;;;;;;4.20;3.90;;;;;;;;;;5037594;28;20493;-74
2022/04/21 07:58:07;;;;;;;4.00;3.70;;;;;;;;;;5045608;28;20439;-73
2022/04/21 08:00:36;;;;;;;3.60;3.30;;;;;;;;;;5041910;28;20438;-77
2022/04/21 08:03:03;;;;;;;3.93;3.60;;;;;;;;;;5044346;28;20469;-77
2022/04/21 08:05:29;;;;;;;3.73;3.43;;;;;;;;;;5048210;28;20442;-73
2022/04/21 08:07:55;;;;;;;4.37;4.23;;;;;;;;;;5046734;28;20447;-74
2022/04/21 08:10:22;;;;;;;4.83;4.13;;;;;;;;;;5047370;28;20525;-73
2022/04/21 08:12:51;;;;;;;3.77;3.67;;;;;;;;;;5048867;28;20497;-75
2022/04/21 08:15:28;;;;;;;3.43;3.23;;;;;;;;;;5049859;28;20468;-73
2022/04/21 08:17:55;;;;;;;3.20;3.10;;;;;;;;;;5048900;28;20426;-75
2022/04/21 08:20:21;;;;;;;3.67;3.43;;;;;;;;;;5048537;28;20500;-77
2022/04/21 08:22:47;;;;;;;3.53;3.43;;;;;;;;;;5049828;28;20430;-79
2022/04/21 08:33:28;;;;;;;4.20;3.60;;;;;;;;;;5034332;28;20946;-78
2022/04/21 08:35:58;;;;;;;8.10;3.43;;;;;;;;;;5040932;28;20508;-79
2022/04/21 08:38:28;;;;;;;3.43;3.23;;;;;;;;;;5041548;28;20450;-73
2022/04/21 08:40:58;;;;;;;5.43;3.90;;;;;;;;;;5041223;28;20537;-76
2022/04/21 08:43:27;;;;;;;8.70;4.03;;;;;;;;;;5042950;28;20509;-77
2022/04/21 08:45:53;;;;;;;6.27;3.80;;;;;;;;;;5046212;28;20454;-75
2022/04/21 08:48:20;;;;;;;5.40;3.60;;;;;;;;;;5044926;28;20453;-80
2022/04/21 08:50:46;;;;;;;4.10;3.70;;;;;;;;;;5045518;28;20454;-74
2022/04/21 08:53:15;;;;;;;3.70;3.50;;;;;;;;;;5046119;28;20692;-74
2022/04/21 08:55:42;;;;;;;4.80;4.50;;;;;;;;;;5043382;28;20478;-73
2022/04/21 08:58:08;;;;;;;4.63;4.00;;;;;;;;;;5047866;28;20430;-74
2022/04/21 09:00:34;;;;;;;3.50;3.40;;;;;;;;;;5049021;28;20514;-73
2022/04/21 09:03:00;;;;;;;6.67;4.17;;;;;;;;;;5048311;28;20465;-73
2022/04/21 09:05:27;;;;;;;3.70;3.60;;;;;;;;;;5047127;28;20522;-73
2022/04/21 09:07:53;;;;;;;3.53;3.43;;;;;;;;;;5046023;28;20992;-77
2022/04/21 09:10:20;;;;;;;2.57;2.47;;;;;;;;;;5039762;28;20439;-76
2022/04/21 09:12:57;;;;;;;5.10;3.53;;;;;;;;;;5032791;28;20525;-74
2022/04/21 09:15:24;;;;;;;7.80;4.07;;;;;;;;;;5043706;28;20476;-73
2022/04/21 09:17:51;;;;;;;6.40;4.07;;;;;;;;;;5041166;28;20810;-75
2022/04/21 09:20:18;;;;;;;5.93;3.97;;;;;;;;;;5041765;28;20441;-73
2022/04/21 09:22:49;;;;;;;4.47;4.00;;;;;;;;;;5043352;28;20547;-77
2022/04/21 09:25:15;;;;;;;4.07;3.87;;;;;;;;;;5040836;28;20451;-73
2022/04/21 09:27:44;;;;;;;4.07;3.87;;;;;;;;;;5038411;28;20442;-74
2022/04/21 09:30:12;;;;;;;6.87;6.33;;;;;;;;;;5048888;28;20480;-80
2022/04/21 09:32:39;;;;;;;5.60;4.33;;;;;;;;;;5049637;28;20445;-75
2022/04/21 09:35:07;;;;;;;4.20;3.13;;;;;;;;;;5041900;28;20569;-76
2022/04/21 09:37:44;;;;;;;3.60;3.50;;;;;;;;;;5046984;28;20851;-73
2022/04/21 09:40:10;;;;;;;4.37;4.03;;;;;;;;;;5051144;28;20788;-75
2022/04/21 09:42:36;;;;;;;4.77;4.47;;;;;;;;;;5046916;28;20949;-73
2022/04/21 09:47:51;;;;;;;4.70;4.40;;;;;;;;;;5046189;28;20511;-73
2022/04/21 09:50:17;;;;;;;3.90;3.80;;;;;;;;;;5050172;28;20473;-74
2022/04/21 09:52:50;;;;;;;4.30;4.20;;;;;;;;;;5049689;28;20442;-73
2022/04/21 09:55:21;;;;;;;4.17;3.90;;;;;;;;;;5035146;28;20848;-74
2022/04/21 09:57:51;;;;;;;4.53;4.33;;;;;;;;;;5046380;28;20429;-73
2022/04/21 10:00:20;;;;;;;4.80;4.23;;;;;;;;;;5044536;28;20512;-74
2022/04/21 10:02:46;;;;;;;10.43;3.50;;;;;;;;;;5050631;28;20442;-73
2022/04/21 10:05:13;;;;;;;5.10;4.70;;;;;;;;;;5051223;28;21002;-73
2022/04/21 10:07:39;;;;;;;5.07;4.37;;;;;;;;;;5047063;28;20454;-76
2022/04/21 10:10:06;;;;;;;4.67;4.27;;;;;;;;;;5048911;28;20430;-77
2022/04/21 10:12:32;;;;;;;6.43;4.47;;;;;;;;;;5052016;28;20887;-74
2022/04/21 10:15:00;;;;;;;5.07;4.77;;;;;;;;;;5050745;28;20841;-74
2022/04/21 10:17:26;;;;;;;4.60;4.40;;;;;;;;;;5050702;28;20448;-75
2022/04/21 10:19:52;;;;;;;4.43;3.97;;;;;;;;;;5048311;28;20517;-73
2022/04/21 10:22:19;;;;;;;5.43;4.80;;;;;;;;;;5048705;28;20458;-73
2022/04/21 10:24:46;;;;;;;4.47;4.10;;;;;;;;;;5051697;28;20469;-79
2022/04/21 10:27:31;;;;;;;4.07;3.87;;;;;;;;;;5050072;28;20442;-74
2022/04/21 10:29:57;;;;;;;4.23;4.13;;;;;;;;;;5048736;28;20442;-76
2022/04/21 10:32:43;;;;;;;5.30;5.00;;;;;;;;;;5045781;28;20829;-75
2022/04/21 10:35:19;;;;;;;6.47;5.37;;;;;;;;;;5047532;28;20932;-74
2022/04/21 10:37:46;;;;;;;6.40;5.47;;;;;;;;;;5049140;28;20506;-73
2022/04/21 10:40:15;;;;;;;3.43;3.33;;;;;;;;;;5043860;28;20950;-74
2022/04/21 10:42:57;;;;;;;4.27;4.07;;;;;;;;;;5047336;28;20438;-72
2022/04/21 10:45:24;;;;;;;4.70;4.50;;;;;;;;;;5049626;28;20438;-73
2022/04/21 10:48:09;;;;;;;5.43;5.13;;;;;;;;;;5046827;28;20967;-73
2022/04/21 10:50:42;;;;;;;5.87;5.17;;;;;;;;;;5043427;28;20502;-75
2022/04/21 10:58:38;;;;;;;4.50;4.20;;;;;;;;;;5045494;28;20548;-73
2022/04/21 11:01:08;;;;;;;5.57;5.07;;;;;;;;;;5045963;28;20573;-74
2022/04/21 11:03:34;;;;;;;6.37;5.87;;;;;;;;;;5044490;28;20875;-75
2022/04/21 11:06:12;;;;;;;4.80;4.60;;;;;;;;;;5048253;28;20525;-75
2022/04/21 11:08:38;;;;;;;5.73;5.20;;;;;;;;;;5050068;28;20469;-80
2022/04/21 11:11:04;;;;;;;6.80;5.60;;;;;;;;;;5036614;28;20446;-79
2022/04/21 11:14:03;;;;;;;6.90;5.50;;;;;;;;;;5048696;28;20479;-78
2022/04/21 11:16:41;;;;;;;8.83;5.60;;;;;;;;;;5025304;28;20482;-80
2022/04/21 11:19:26;;;;;;;4.83;4.60;;;;;;;;;;5041562;28;20422;-79
2022/04/21 11:21:52;;;;;;;6.23;5.73;;;;;;;;;;5040241;28;20468;-80
2022/04/21 11:24:18;;;;;;;5.93;5.33;;;;;;;;;;5049099;28;20500;-73
2022/04/21 11:26:46;;;;;;;6.33;5.90;;;;;;;;;;5045565;28;20490;-79
2022/04/21 11:29:12;;;;;;;4.40;4.10;;;;;;;;;;5048120;28;20499;-73
2022/04/21 11:31:39;;;;;;;6.00;5.40;;;;;;;;;;5047312;28;20930;-73
2022/04/21 11:34:05;;;;;;;7.30;4.60;;;;;;;;;;5046472;28;21018;-74
2022/04/21 11:36:35;;;;;;;5.90;5.10;;;;;;;;;;5045561;28;20564;-73
2022/04/21 11:39:06;;;;;;;5.83;5.30;;;;;;;;;;5048052;28;20507;-73
2022/04/21 11:41:32;;;;;;;8.40;5.23;;;;;;;;;;5046203;28;20803;-80
2022/04/21 11:43:58;;;;;;;7.00;6.50;;;;;;;;;;5044899;28;20442;-76
2022/04/21 11:46:24;;;;;;;8.23;5.23;;;;;;;;;;5046936;28;20434;-79
2022/04/21 11:48:58;;;;;;;5.83;5.43;;;;;;;;;;5047971;28;20458;-78
2022/04/21 11:51:27;;;;;;;7.13;5.37;;;;;;;;;;5045862;28;20434;-76
2022/04/21 11:53:55;;;;;;;4.23;3.97;;;;;;;;;;5048270;28;20440;-76
2022/04/21 11:56:24;;;;;;;4.93;4.60;;;;;;;;;;5034619;28;20531;-77
2022/04/21 11:58:50;;;;;;;15.43;6.03;;;;;;;;;;5044917;28;20475;-78
2022/04/21 12:06:47;;;;;;;5.63;5.33;;;;;;;;;;5044018;28;20433;-73
2022/04/21 12:09:15;;;;;;;5.43;5.03;;;;;;;;;;5045881;28;20427;-75
2022/04/21 12:11:41;;;;;;;5.10;4.73;;;;;;;;;;5043958;28;20533;-81
2022/04/21 12:14:07;;;;;;;5.87;5.37;;;;;;;;;;5048857;28;20797;-80
2022/04/21 12:16:36;;;;;;;5.73;5.00;;;;;;;;;;5042021;28;20478;-74
2022/04/21 12:19:14;;;;;;;5.90;5.40;;;;;;;;;;5046926;28;20419;-74
2022/04/21 12:21:41;;;;;;;6.33;5.83;;;;;;;;;;5045933;28;20434;-74
2022/04/21 12:24:11;;;;;;;13.83;5.83;;;;;;;;;;5048518;28;20860;-74
2022/04/21 12:26:37;;;;;;;5.73;5.33;;;;;;;;;;5044605;28;20448;-74
2022/04/21 12:29:06;;;;;;;5.03;4.57;;;;;;;;;;5028779;28;20459;-74
2022/04/21 12:31:42;;;;;;;8.30;4.80;;;;;;;;;;5045966;28;21008;-77
2022/04/21 12:34:09;;;;;;;6.33;6.03;;;;;;;;;;5045208;28;20434;-79
2022/04/21 12:36:35;;;;;;;6.23;5.80;;;;;;;;;;5047795;28;20486;-75
2022/04/21 12:39:02;;;;;;;4.53;4.33;;;;;;;;;;5040117;28;20803;-75
2022/04/21 12:41:28;;;;;;;5.50;4.93;;;;;;;;;;5043877;28;20504;-76
2022/04/21 12:43:55;;;;;;;5.23;4.93;;;;;;;;;;5047581;28;20429;-77
2022/04/21 12:46:20;;;;;;;14.97;4.20;;;;;;;;;;5042137;28;21716;-78
2022/04/21 12:48:50;;;;;;;5.17;4.83;;;;;;;;;;5043773;28;20540;-79
2022/04/21 12:51:19;;;;;;;6.90;5.50;;;;;;;;;;5040098;28;20957;-76
2022/04/21 12:53:45;;;;;;;5.20;4.83;;;;;;;;;;5046931;28;20472;-74
2022/04/21 12:56:12;;;;;;;5.53;5.23;;;;;;;;;;5042568;28;20560;-76
2022/04/21 12:58:38;;;;;;;13.03;5.70;;;;;;;;;;5048099;28;20786;-77
2022/04/21 13:01:05;;;;;;;5.30;4.90;;;;;;;;;;5046687;28;20439;-79
2022/04/21 13:03:32;;;;;;;9.87;4.77;;;;;;;;;;5046495;28;20438;-75
2022/04/21 13:05:59;;;;;;;4.63;4.33;;;;;;;;;;5045193;28;20436;-78
2022/04/21 13:08:29;;;;;;;5.57;5.07;;;;;;;;;;5045534;28;20443;-79
2022/04/21 13:10:56;;;;;;;6.13;4.97;;;;;;;;;;5044787;28;20805;-75
2022/04/21 13:13:23;;;;;;;6.10;5.70;;;;;;;;;;5046896;28;20529;-74
2022/04/21 13:15:49;;;;;;;4.10;3.77;;;;;;;;;;5043860;28;20989;-74
2022/04/21 13:18:16;;;;;;;5.47;4.97;;;;;;;;;;5037729;28;20438;-75
2022/04/21 13:23:27;;;;;;;4.50;4.30;;;;;;;;;;5043448;28;20496;-73
2022/04/21 13:25:54;;;;;;;5.23;4.83;;;;;;;;;;5045786;28;20465;-76
2022/04/21 13:28:20;;;;;;;4.53;4.23;;;;;;;;;;5047082;28;20458;-74
2022/04/21 13:30:46;;;;;;;4.50;4.30;;;;;;;;;;5047007;28;20468;-80
2022/04/21 13:33:24;;;;;;;5.43;4.80;;;;;;;;;;5037024;28;20426;-78
2022/04/21 13:35:54;;;;;;;4.40;4.10;;;;;;;;;;5039478;28;20215;-74
2022/04/21 13:38:21;;;;;;;4.33;4.03;;;;;;;;;;5048202;28;20484;-76
2022/04/21 13:40:47;;;;;;;3.70;3.50;;;;;;;;;;5031218;28;20451;-75
2022/04/21 13:43:13;;;;;;;9.00;5.20;;;;;;;;;;5043499;28;20864;-75
2022/04/21 13:45:40;;;;;;;11.37;5.70;;;;;;;;;;5047543;28;20532;-76
2022/04/21 13:48:08;;;;;;;4.60;4.20;;;;;;;;;;5048696;28;20458;-73
2022/04/21 13:50:34;;;;;;;4.30;3.90;;;;;;;;;;5043263;28;21009;-73
2022/04/21 13:53:00;;;;;;;5.60;3.97;;;;;;;;;;5044337;28;20435;-80
2022/04/21 13:55:26;;;;;;;4.50;4.07;;;;;;;;;;5042495;28;20525;-75
2022/04/21 13:57:52;;;;;;;7.53;4.40;;;;;;;;;;5046187;28;21747;-80
2022/04/21 14:00:24;;;;;;;3.83;3.60;;;;;;;;;;5045199;28;20533;-77
2022/04/21 14:02:50;;;;;;;4.70;4.33;;;;;;;;;;5045227;28;20430;-75
2022/04/21 14:05:16;;;;;;;4.80;4.40;;;;;;;;;;5044168;28;20879;-74
2022/04/21 14:07:42;;;;;;;4.53;4.23;;;;;;;;;;5045236;28;20496;-74
2022/04/21 14:10:08;;;;;;;17.87;4.73;;;;;;;;;;5042733;28;20491;-78
2022/04/21 14:12:34;;;;;;;3.17;3.07;;;;;;;;;;5045217;28;20446;-73
2022/04/21 14:15:00;;;;;;;3.00;2.90;;;;;;;;;;5040973;28;20483;-78
2022/04/21 14:17:26;;;;;;;4.83;4.53;;;;;;;;;;5046268;28;20445;-73
2022/04/21 14:19:52;;;;;;;4.18;3.88;;;;;;;;;;5048978;28;20425;-76
2022/04/21 14:22:18;;;;;;;4.50;4.10;;;;;;;;;;5046101;28;20229;-74
2022/04/21 14:24:45;;;;;;;4.57;4.30;;;;;;;;;;5044158;28;20938;-79
2022/04/21 14:27:11;;;;;;;3.93;3.50;;;;;;;;;;5045303;28;20438;-75
2022/04/21 14:29:37;;;;;;;4.70;4.30;;;;;;;;;;5039526;28;20507;-77
2022/04/21 14:32:03;;;;;;;3.73;3.63;;;;;;;;;;5046578;28;20478;-75
2022/04/21 14:34:30;;;;;;;4.10;3.83;;;;;;;;;;5042960;28;20457;-76
2022/04/21 14:37:01;;;;;;;2.97;2.97;;;;;;;;;;5050863;28;20803;-74
2022/04/21 14:44:04;;;;;;;3.97;3.67;;;;;;;;;;5044880;28;20485;-75
2022/04/21 14:45:00;;;;;;;3.97;3.77;;;;;;;;;;5050375;28;20784;-74
2022/04/21 14:47:27;;;;;;;3.80;3.50;;;;;;;;;;5045492;28;20438;-76
2022/04/21 14:49:53;;;;;;;3.90;3.67;;;;;;;;;;5038995;28;20531;-73
2022/04/21 14:52:22;;;;;;;3.30;3.20;;;;;;;;;;5045859;28;20425;-76
2022/04/21 14:54:48;;;;;;;3.17;2.97;;;;;;;;;;5042031;28;20439;-79
2022/04/21 14:57:15;;;;;;;4.50;4.10;;;;;;;;;;5047560;28;20461;-79
2022/04/21 14:59:41;;;;;;;7.93;3.90;;;;;;;;;;5047116;28;21076;-80
2022/04/21 15:02:07;;;;;;;4.13;3.83;;;;;;;;;;5047118;28;20446;-78
2022/04/21 15:04:34;;;;;;;4.90;4.37;;;;;;;;;;5043959;28;20465;-73
2022/04/21 15:07:00;;;;;;;3.40;3.30;;;;;;;;;;5048172;28;20454;-78
2022/04/21 15:09:26;;;;;;;2.97;2.77;;;;;;;;;;5046674;28;20434;-77
2022/04/21 15:11:52;;;;;;;4.90;4.10;;;;;;;;;;5044117;28;20442;-78
2022/04/21 15:14:19;;;;;;;3.20;3.13;;;;;;;;;;5046830;28;20955;-75
2022/04/21 15:16:45;;;;;;;4.10;3.73;;;;;;;;;;5046485;28;20505;-78
2022/04/21 15:19:11;;;;;;;3.40;3.20;;;;;;;;;;5045188;28;20446;-77
2022/04/21 15:21:38;;;;;;;3.30;3.20;;;;;;;;;;5046861;28;20453;-76
2022/04/21 15:24:04;;;;;;;3.27;3.07;;;;;;;;;;5046589;28;20442;-78
2022/04/21 15:26:31;;;;;;;3.40;3.40;;;;;;;;;;5043726;28;20457;-78
2022/04/21 15:28:56;;;;;;;4.07;3.73;;;;;;;;;;5048325;28;20515;-79
2022/04/21 15:31:23;;;;;;;3.40;3.20;;;;;;;;;;5045227;28;20588;-75
2022/04/21 15:33:49;;;;;;;3.20;3.00;;;;;;;;;;5046554;28;20434;-77
2022/04/21 15:36:15;;;;;;;4.37;3.97;;;;;;;;;;5044817;28;20485;-77
2022/04/21 15:38:49;;;;;;;3.33;3.13;;;;;;;;;;5045788;28;20580;-76